createdAt,value
2019-01-12T00:01:29.857Z,5.90
2019-01-12T00:04:01.854Z,5.90
2019-01-12T00:06:32.960Z,5.90
2019-01-12T00:09:06.281Z,5.90
2019-01-12T00:11:38.245Z,5.90
2019-01-12T00:14:09.775Z,5.90
2019-01-12T00:16:41.605Z,5.90
2019-01-12T00:19:13.265Z,5.90
2019-01-12T00:21:44.639Z,5.90
2019-01-12T00:24:16.222Z,5.90
2019-01-12T00:26:48.215Z,5.90
2019-01-12T00:29:19.538Z,5.90
2019-01-12T00:31:51.073Z,5.90
2019-01-12T00:34:22.101Z,5.90
2019-01-12T00:36:54.020Z,5.90
2019-01-12T00:39:25.875Z,5.90
2019-01-12T00:41:57.203Z,5.90
2019-01-12T00:44:28.451Z,5.90
2019-01-12T00:46:59.996Z,5.90
2019-01-12T00:49:31.883Z,6.00
2019-01-12T00:52:03.231Z,6.00
2019-01-12T00:54:38.499Z,6.00
2019-01-12T00:57:08.003Z,5.90
2019-01-12T00:59:39.318Z,5.90
2019-01-12T01:02:10.626Z,6.00
2019-01-12T01:04:42.449Z,6.00
2019-01-12T01:07:13.837Z,6.00
2019-01-12T01:09:45.531Z,6.00
2019-01-12T01:12:17.106Z,6.00
2019-01-12T01:14:48.176Z,5.90
2019-01-12T01:17:19.746Z,5.90
2019-01-12T01:19:51.030Z,5.90
2019-01-12T01:22:23.083Z,5.90
2019-01-12T01:24:54.761Z,5.90
2019-01-12T01:27:26.363Z,5.90
2019-01-12T01:29:57.916Z,5.90
2019-01-12T01:32:29.915Z,6.00
2019-01-12T01:35:01.907Z,6.00
2019-01-12T01:37:33.765Z,6.00
2019-01-12T01:40:06.662Z,6.00
2019-01-12T01:42:37.662Z,6.00
2019-01-12T01:45:10.042Z,6.00
2019-01-12T01:47:41.696Z,6.00
2019-01-12T01:50:14.860Z,6.00
2019-01-12T01:52:46.492Z,6.00
2019-01-12T01:55:17.864Z,6.00
2019-01-12T01:57:49.187Z,6.00
2019-01-12T02:00:21.159Z,5.90
2019-01-12T02:02:53.349Z,5.90
2019-01-12T02:05:24.670Z,6.00
2019-01-12T02:07:55.670Z,6.00
2019-01-12T02:10:27.509Z,6.00
2019-01-12T02:12:59.146Z,6.00
2019-01-12T02:15:30.673Z,6.00
2019-01-12T02:18:02.904Z,6.00
2019-01-12T02:20:34.506Z,6.00
2019-01-12T02:23:06.073Z,6.10
2019-01-12T02:25:38.045Z,6.10
2019-01-12T02:28:09.907Z,6.10
2019-01-12T02:30:41.215Z,6.10
2019-01-12T02:33:12.599Z,6.10
2019-01-12T02:35:44.242Z,6.00
2019-01-12T02:38:16.079Z,6.10
2019-01-12T02:40:47.743Z,6.10
2019-01-12T02:43:19.511Z,6.10
2019-01-12T02:45:51.278Z,6.10
2019-01-12T02:48:22.593Z,6.10
2019-01-12T02:50:54.404Z,6.10
2019-01-12T02:53:26.105Z,6.10
2019-01-12T02:55:57.121Z,6.10
2019-01-12T02:58:29.043Z,6.10
2019-01-12T03:01:00.067Z,6.10
2019-01-12T03:03:31.356Z,6.10
2019-01-12T03:06:02.656Z,6.10
2019-01-12T03:08:34.223Z,6.10
2019-01-12T03:11:05.646Z,6.10
2019-01-12T03:13:37.223Z,6.10
2019-01-12T03:16:08.550Z,6.10
2019-01-12T03:18:40.236Z,6.10
2019-01-12T03:21:11.657Z,6.10
2019-01-12T03:23:43.181Z,6.10
2019-01-12T03:26:15.135Z,6.10
2019-01-12T03:28:46.715Z,6.10
2019-01-12T03:31:18.755Z,6.20
2019-01-12T03:33:50.620Z,6.20
2019-01-12T03:36:22.634Z,6.20
2019-01-12T03:38:53.995Z,6.20
2019-01-12T03:41:25.623Z,6.20
2019-01-12T03:43:56.704Z,6.20
2019-01-12T03:46:28.639Z,6.20
2019-01-12T03:48:59.983Z,6.10
2019-01-12T03:51:31.607Z,6.20
2019-01-12T03:54:03.155Z,6.20
2019-01-12T03:56:35.058Z,6.20
2019-01-12T03:59:06.761Z,6.20
2019-01-12T04:01:38.128Z,6.20
2019-01-12T04:04:10.119Z,6.20
2019-01-12T04:06:41.447Z,6.30
2019-01-12T04:09:13.606Z,6.30
2019-01-12T04:11:44.627Z,6.30
2019-01-12T04:14:16.290Z,6.30
2019-01-12T04:16:48.081Z,6.30
2019-01-12T04:19:19.418Z,6.20
2019-01-12T04:21:50.528Z,6.20
2019-01-12T04:24:22.161Z,6.20
2019-01-12T04:26:53.479Z,6.10
2019-01-12T04:29:25.144Z,6.10
2019-01-12T04:31:56.906Z,6.10
2019-01-12T04:34:28.182Z,6.10
2019-01-12T04:36:59.482Z,6.10
2019-01-12T04:39:31.089Z,6.20
2019-01-12T04:42:03.063Z,6.20
2019-01-12T04:44:34.897Z,6.20
2019-01-12T04:47:06.472Z,6.20
2019-01-12T04:49:38.053Z,6.20
2019-01-12T04:52:09.581Z,6.20
2019-01-12T04:54:40.594Z,6.10
2019-01-12T04:57:12.179Z,6.10
2019-01-12T04:59:44.125Z,6.10
2019-01-12T05:02:15.683Z,6.10
2019-01-12T05:04:47.283Z,6.10
2019-01-12T05:07:19.038Z,6.10
2019-01-12T05:09:50.629Z,6.10
2019-01-12T05:12:22.689Z,6.10
2019-01-12T05:14:53.993Z,6.10
2019-01-12T05:17:25.342Z,6.10
2019-01-12T05:19:57.261Z,6.10
2019-01-12T05:22:29.070Z,6.00
2019-01-12T05:25:00.639Z,6.10
2019-01-12T05:27:32.236Z,6.00
2019-01-12T05:30:04.290Z,6.10
2019-01-12T05:32:35.812Z,6.10
2019-01-12T05:35:07.592Z,6.10
2019-01-12T05:37:39.270Z,6.10
2019-01-12T05:40:11.005Z,6.10
2019-01-12T05:42:42.684Z,6.00
2019-01-12T05:45:14.796Z,5.90
2019-01-12T05:47:46.112Z,6.00
2019-01-12T05:50:17.836Z,5.90
2019-01-12T05:52:49.660Z,6.00
2019-01-12T05:55:20.752Z,6.00
2019-01-12T05:57:52.037Z,6.00
2019-01-12T06:00:24.430Z,6.00
2019-01-12T06:02:56.272Z,6.00
2019-01-12T06:05:27.599Z,6.00
2019-01-12T06:07:59.510Z,6.00
2019-01-12T06:10:31.128Z,6.00
2019-01-12T06:13:02.646Z,5.90
2019-01-12T06:15:34.179Z,5.80
2019-01-12T06:18:05.772Z,5.80
2019-01-12T06:20:37.670Z,5.80
2019-01-12T06:23:09.286Z,5.80
2019-01-12T06:25:40.589Z,5.80
2019-01-12T06:28:11.867Z,5.80
2019-01-12T06:30:43.192Z,5.80
2019-01-12T06:33:14.190Z,5.80
2019-01-12T06:35:45.748Z,5.80
2019-01-12T06:38:17.680Z,5.70
2019-01-12T06:40:49.331Z,5.80
2019-01-12T06:43:20.681Z,5.80
2019-01-12T06:45:52.309Z,5.70
2019-01-12T06:48:24.411Z,5.70
2019-01-12T06:50:56.068Z,5.70
2019-01-12T06:53:27.990Z,5.70
2019-01-12T06:55:59.974Z,5.80
2019-01-12T06:58:31.935Z,5.80
2019-01-12T07:01:03.899Z,5.80
2019-01-12T07:03:34.912Z,5.80
2019-01-12T07:06:06.303Z,5.90
2019-01-12T07:08:38.189Z,5.90
2019-01-12T07:11:09.449Z,6.00
2019-01-12T07:13:41.369Z,6.00
2019-01-12T07:16:13.072Z,6.00
2019-01-12T07:18:44.640Z,6.00
2019-01-12T07:21:15.901Z,6.00
2019-01-12T07:23:47.695Z,5.90
2019-01-12T07:26:19.615Z,5.90
2019-01-12T07:28:50.875Z,5.90
2019-01-12T07:31:23.444Z,5.90
2019-01-12T07:33:55.181Z,5.90
2019-01-12T07:36:28.416Z,5.90
2019-01-12T07:39:00.278Z,5.80
2019-01-12T07:41:31.871Z,5.80
2019-01-12T07:44:03.282Z,5.70
2019-01-12T07:46:35.061Z,5.70
2019-01-12T07:49:06.643Z,5.70
2019-01-12T07:51:38.570Z,5.70
2019-01-12T07:54:10.534Z,5.80
2019-01-12T07:56:42.095Z,5.80
2019-01-12T07:59:13.499Z,5.80
2019-01-12T08:01:45.115Z,5.80
2019-01-12T08:04:16.463Z,5.90
2019-01-12T08:06:48.143Z,5.90
2019-01-12T08:09:20.119Z,5.90
2019-01-12T08:11:51.522Z,6.00
2019-01-12T08:14:23.078Z,6.00
2019-01-12T08:16:54.331Z,6.00
2019-01-12T08:19:25.709Z,6.00
2019-01-12T08:21:57.151Z,6.10
2019-01-12T08:24:28.502Z,6.20
2019-01-12T08:27:00.079Z,6.20
2019-01-12T08:29:31.400Z,6.30
2019-01-12T08:32:03.032Z,6.40
2019-01-12T08:34:34.579Z,6.50
2019-01-12T08:37:05.733Z,6.70
2019-01-12T08:39:37.397Z,6.80
2019-01-12T08:42:09.509Z,6.90
2019-01-12T08:44:41.093Z,7.00
2019-01-12T08:47:12.419Z,7.00
2019-01-12T08:49:44.574Z,7.00
2019-01-12T08:52:16.291Z,7.00
2019-01-12T08:54:48.272Z,6.90
2019-01-12T08:57:19.583Z,6.80
2019-01-12T08:59:51.323Z,6.70
2019-01-12T09:02:22.875Z,6.70
2019-01-12T09:04:55.487Z,6.70
2019-01-12T09:07:27.102Z,6.70
2019-01-12T09:09:59.027Z,6.70
2019-01-12T09:12:30.657Z,6.70
2019-01-12T09:15:02.323Z,6.60
2019-01-12T09:17:33.982Z,6.50
2019-01-12T09:20:06.922Z,6.50
2019-01-12T09:22:38.646Z,6.50
2019-01-12T09:25:11.356Z,6.50
2019-01-12T09:27:43.155Z,6.40
2019-01-12T09:30:18.807Z,6.50
2019-01-12T09:32:50.893Z,6.50
2019-01-12T09:35:22.707Z,6.40
2019-01-12T09:37:54.480Z,6.40
2019-01-12T09:40:26.653Z,6.40
2019-01-12T09:42:58.745Z,6.50
2019-01-12T09:45:30.162Z,6.70
2019-01-12T09:48:01.745Z,7.00
2019-01-12T09:50:33.667Z,7.20
2019-01-12T09:53:05.735Z,7.20
2019-01-12T09:55:37.359Z,7.10
2019-01-12T09:58:08.701Z,7.20
2019-01-12T10:00:40.474Z,7.20
2019-01-12T10:03:12.175Z,7.20
2019-01-12T10:05:43.571Z,7.10
2019-01-12T10:08:16.481Z,7.10
2019-01-12T10:10:48.135Z,7.10
2019-01-12T10:13:19.486Z,7.10
2019-01-12T10:15:51.207Z,7.10
2019-01-12T10:18:23.008Z,7.10
2019-01-12T10:20:54.773Z,7.20
2019-01-12T10:23:26.599Z,7.20
2019-01-12T10:25:58.376Z,7.10
2019-01-12T10:28:30.237Z,7.00
2019-01-12T10:31:01.853Z,6.90
2019-01-12T10:33:34.160Z,6.60
2019-01-12T10:36:06.047Z,6.50
2019-01-12T10:38:37.935Z,6.60
2019-01-12T10:41:09.735Z,6.70
2019-01-12T10:43:41.693Z,6.70
2019-01-12T10:46:13.351Z,6.60
2019-01-12T10:48:44.737Z,6.60
2019-01-12T10:51:16.013Z,6.70
2019-01-12T10:53:47.830Z,6.80
2019-01-12T10:56:21.309Z,6.80
2019-01-12T10:58:53.304Z,6.90
2019-01-12T11:01:24.713Z,7.00
2019-01-12T11:03:56.063Z,7.20
2019-01-12T11:06:27.797Z,7.40
2019-01-12T11:09:00.837Z,7.40
2019-01-12T11:11:32.737Z,7.40
2019-01-12T11:14:04.818Z,7.30
2019-01-12T11:16:36.158Z,7.40
2019-01-12T11:19:08.340Z,7.50
2019-01-12T11:21:40.113Z,7.50
2019-01-12T11:24:11.139Z,7.50
2019-01-12T11:26:42.475Z,7.50
2019-01-12T11:29:13.484Z,7.40
2019-01-12T11:31:44.892Z,7.20
2019-01-12T11:34:16.876Z,7.10
2019-01-12T11:36:48.877Z,7.10
2019-01-12T11:39:20.769Z,7.00
2019-01-12T11:41:52.308Z,7.00
2019-01-12T11:44:23.665Z,6.90
2019-01-12T11:46:55.305Z,6.70
2019-01-12T11:49:27.662Z,6.80
2019-01-12T11:51:59.166Z,6.80
2019-01-12T11:54:30.928Z,6.80
2019-01-12T11:57:02.233Z,6.80
2019-01-12T11:59:33.606Z,6.70
2019-01-12T12:02:05.250Z,6.70
2019-01-12T12:04:36.260Z,6.70
2019-01-12T12:07:08.110Z,6.70
2019-01-12T12:09:41.666Z,6.70
2019-01-12T12:12:13.088Z,6.70
2019-01-12T12:14:44.642Z,6.60
2019-01-12T12:17:16.439Z,6.50
2019-01-12T12:19:47.735Z,6.50
2019-01-12T12:22:19.637Z,6.50
2019-01-12T12:24:50.918Z,6.50
2019-01-12T12:27:25.965Z,6.40
2019-01-12T12:29:56.031Z,6.30
2019-01-12T12:32:27.970Z,6.30
2019-01-12T12:34:59.417Z,6.20
2019-01-12T12:37:30.774Z,6.20
2019-01-12T12:40:02.554Z,6.10
2019-01-12T12:42:34.756Z,6.10
2019-01-12T12:45:10.560Z,6.10
2019-01-12T12:47:42.199Z,6.10
2019-01-12T12:50:14.845Z,6.10
2019-01-12T12:52:46.272Z,6.10
2019-01-12T12:55:17.964Z,6.10
2019-01-12T12:57:49.488Z,6.10
2019-01-12T13:00:23.595Z,6.10
2019-01-12T13:02:55.281Z,6.00
2019-01-12T13:05:27.263Z,6.00
2019-01-12T13:07:58.870Z,5.90
2019-01-12T13:10:32.472Z,5.90
2019-01-12T13:13:04.538Z,5.90
2019-01-12T13:15:35.640Z,5.90
2019-01-12T13:18:07.860Z,5.80
2019-01-12T13:20:39.963Z,5.80
2019-01-12T13:23:12.857Z,5.80
2019-01-12T13:25:44.515Z,5.70
2019-01-12T13:28:16.925Z,5.70
2019-01-12T13:30:48.602Z,5.70
2019-01-12T13:33:19.943Z,5.60
2019-01-12T13:35:51.598Z,5.60
2019-01-12T13:38:22.723Z,5.60
2019-01-12T13:40:54.327Z,5.60
2019-01-12T13:43:25.984Z,5.50
2019-01-12T13:45:57.319Z,5.50
2019-01-12T13:48:28.652Z,5.50
2019-01-12T13:51:00.665Z,5.50
2019-01-12T13:53:32.374Z,5.50
2019-01-12T13:56:04.870Z,5.50
2019-01-12T13:58:36.786Z,5.50
2019-01-12T14:01:08.893Z,5.50
2019-01-12T14:03:40.766Z,5.40
2019-01-12T14:06:12.076Z,5.50
2019-01-12T14:08:43.979Z,5.50
2019-01-12T14:11:15.312Z,5.50
2019-01-12T14:13:46.913Z,5.50
2019-01-12T14:16:18.023Z,5.40
2019-01-12T14:18:49.404Z,5.40
2019-01-12T14:21:21.613Z,5.40
2019-01-12T14:23:52.632Z,5.40
2019-01-12T14:26:24.152Z,5.40
2019-01-12T14:28:55.289Z,5.40
2019-01-12T14:31:26.702Z,5.40
2019-01-12T14:33:58.318Z,5.40
2019-01-12T14:36:30.120Z,5.40
2019-01-12T14:39:01.742Z,5.40
2019-01-12T14:41:34.412Z,5.40
2019-01-12T14:44:05.794Z,5.40
2019-01-12T14:46:37.447Z,5.30
2019-01-12T14:49:09.056Z,5.30
2019-01-12T14:51:40.659Z,5.30
2019-01-12T14:54:12.822Z,5.20
2019-01-12T14:56:44.648Z,5.20
2019-01-12T14:59:16.433Z,5.10
2019-01-12T15:01:47.468Z,5.10
2019-01-12T15:04:18.574Z,5.10
2019-01-12T15:06:50.193Z,5.10
2019-01-12T15:09:22.261Z,5.10
2019-01-12T15:11:54.001Z,5.10
2019-01-12T15:14:25.302Z,5.10
2019-01-12T15:16:56.947Z,5.10
2019-01-12T15:19:28.605Z,5.10
2019-01-12T15:22:00.000Z,5.00
2019-01-12T15:24:32.168Z,5.00
2019-01-12T15:27:03.577Z,5.10
2019-01-12T15:29:35.235Z,5.10
2019-01-12T15:32:06.989Z,5.10
2019-01-12T15:34:38.764Z,5.00
2019-01-12T15:37:10.114Z,5.10
2019-01-12T15:39:42.111Z,5.10
2019-01-12T15:42:13.849Z,5.10
2019-01-12T15:44:44.966Z,5.10
2019-01-12T15:47:16.314Z,5.10
2019-01-12T15:49:48.951Z,5.10
2019-01-12T15:52:21.122Z,5.10
2019-01-12T15:54:53.246Z,5.10
2019-01-12T15:57:24.593Z,5.00
2019-01-12T15:59:55.895Z,5.00
2019-01-12T16:02:27.471Z,5.00
2019-01-12T16:04:58.840Z,5.00
2019-01-12T16:07:30.722Z,4.90
2019-01-12T16:10:02.360Z,4.90
2019-01-12T16:12:33.615Z,5.00
2019-01-12T16:15:07.056Z,5.00
2019-01-12T16:17:38.984Z,5.10
2019-01-12T16:20:39.017Z,5.10
2019-01-12T16:23:12.029Z,5.10
2019-01-12T16:25:44.010Z,5.00
2019-01-12T16:28:15.653Z,5.00
2019-01-12T16:30:47.524Z,5.00
2019-01-12T16:33:19.268Z,5.00
2019-01-12T16:35:51.060Z,5.00
2019-01-12T16:38:22.842Z,5.00
2019-01-12T16:40:54.159Z,5.00
2019-01-12T16:43:25.803Z,5.00
2019-01-12T16:45:57.364Z,5.10
2019-01-12T16:48:29.000Z,5.10
2019-01-12T16:51:00.811Z,5.10
2019-01-12T16:53:32.406Z,5.10
2019-01-12T16:56:04.604Z,5.20
2019-01-12T16:58:36.473Z,5.20
2019-01-12T17:01:08.218Z,5.20
2019-01-12T17:03:39.584Z,5.20
2019-01-12T17:06:11.484Z,5.20
2019-01-12T17:08:43.176Z,5.20
2019-01-12T17:11:14.727Z,5.20
2019-01-12T17:13:46.030Z,5.20
2019-01-12T17:16:17.949Z,5.30
2019-01-12T17:18:49.598Z,5.30
2019-01-12T17:21:21.212Z,5.30
2019-01-12T17:23:52.782Z,5.40
2019-01-12T17:26:24.382Z,5.40
2019-01-12T17:28:56.007Z,5.40
2019-01-12T17:31:27.847Z,5.30
2019-01-12T17:33:59.790Z,5.30
2019-01-12T17:36:31.689Z,5.30
2019-01-12T17:39:04.180Z,5.30
2019-01-12T17:41:35.820Z,5.40
2019-01-12T17:44:09.065Z,5.40
2019-01-12T17:46:41.040Z,5.50
2019-01-12T17:49:12.594Z,5.50
2019-01-12T17:51:43.898Z,5.60
2019-01-12T17:54:15.227Z,5.60
2019-01-12T17:56:46.478Z,5.50
2019-01-12T17:59:18.354Z,5.60
2019-01-12T18:01:50.761Z,5.60
2019-01-12T18:04:33.928Z,5.60
2019-01-12T18:07:08.970Z,5.70
2019-01-12T18:09:41.763Z,5.70
2019-01-12T18:12:13.427Z,5.70
2019-01-12T18:14:44.953Z,5.60
2019-01-12T18:17:16.460Z,5.50
2019-01-12T18:19:48.121Z,5.50
2019-01-12T18:22:19.459Z,5.50
2019-01-12T18:24:51.292Z,5.40
2019-01-12T18:27:23.279Z,5.40
2019-01-12T18:29:54.971Z,5.50
2019-01-12T18:32:26.366Z,5.50
2019-01-12T18:34:58.711Z,5.60
2019-01-12T18:37:30.349Z,5.60
2019-01-12T18:40:02.251Z,5.70
2019-01-12T18:42:33.261Z,5.70
2019-01-12T18:45:05.281Z,5.70
2019-01-12T18:47:36.660Z,5.70
2019-01-12T18:50:12.115Z,5.60
2019-01-12T18:52:44.169Z,5.60
2019-01-12T18:55:15.730Z,5.50
2019-01-12T18:57:47.634Z,5.50
2019-01-12T19:00:22.644Z,5.50
2019-01-12T19:02:54.694Z,5.50
2019-01-12T19:05:26.767Z,5.50
2019-01-12T19:07:58.152Z,5.40
2019-01-12T19:10:29.836Z,5.50
2019-01-12T19:13:02.137Z,5.50
2019-01-12T19:15:33.980Z,5.50
2019-01-12T19:18:05.725Z,5.60
2019-01-12T19:20:37.060Z,5.60
2019-01-12T19:23:08.665Z,5.60
2019-01-12T19:25:40.759Z,5.60
2019-01-12T19:28:12.058Z,5.60
2019-01-12T19:30:43.585Z,5.60
2019-01-12T19:33:15.113Z,5.70
2019-01-12T19:35:46.917Z,5.70
2019-01-12T19:38:18.632Z,5.80
2019-01-12T19:40:50.599Z,5.80
2019-01-12T19:43:22.751Z,5.80
2019-01-12T19:45:54.562Z,5.90
2019-01-12T19:48:25.903Z,5.90
2019-01-12T19:50:57.858Z,5.90
2019-01-12T19:53:29.702Z,6.00
2019-01-12T19:56:01.521Z,6.00
2019-01-12T19:58:33.656Z,6.00
2019-01-12T20:01:06.017Z,6.00
2019-01-12T20:03:37.632Z,6.10
2019-01-12T20:06:16.876Z,6.10
2019-01-12T20:08:42.409Z,6.10
2019-01-12T20:11:14.157Z,6.20
2019-01-12T20:13:45.967Z,6.20
2019-01-12T20:16:17.837Z,6.30
2019-01-12T20:18:49.893Z,6.30
2019-01-12T20:21:21.194Z,6.20
2019-01-12T20:23:52.551Z,6.30
2019-01-12T20:26:24.353Z,6.30
2019-01-12T20:28:56.048Z,6.30
2019-01-12T20:32:14.814Z,6.40
2019-01-12T20:34:53.027Z,6.40
2019-01-12T20:38:21.544Z,6.40
2019-01-12T20:41:48.621Z,6.40
2019-01-12T20:45:11.592Z,6.40
2019-01-12T20:48:15.686Z,6.40
2019-01-12T20:52:05.501Z,6.40
2019-01-12T20:55:22.647Z,6.50
2019-01-12T20:58:53.640Z,6.40
2019-01-12T21:02:13.108Z,6.40
2019-01-12T21:05:31.103Z,6.40
2019-01-12T21:08:39.888Z,6.30
2019-01-12T21:12:14.268Z,6.30
2019-01-12T21:14:58.709Z,6.30
2019-01-12T21:17:30.484Z,6.30
2019-01-12T21:20:01.624Z,6.30
2019-01-12T21:22:34.403Z,6.30
2019-01-12T21:25:09.196Z,6.40
2019-01-12T21:27:40.852Z,6.40
2019-01-12T21:30:16.419Z,6.50
2019-01-12T21:32:47.879Z,6.50
2019-01-12T21:35:19.270Z,6.50
2019-01-12T21:37:50.633Z,6.50
2019-01-12T21:40:22.582Z,6.50
2019-01-12T21:42:54.183Z,6.50
2019-01-12T21:45:25.827Z,6.50
2019-01-12T21:47:57.474Z,6.40
2019-01-12T21:50:29.466Z,6.40
2019-01-12T21:53:01.442Z,6.40
2019-01-12T21:55:33.042Z,6.40
2019-01-12T21:58:05.081Z,6.40
2019-01-12T22:00:37.119Z,6.40
2019-01-12T22:03:08.516Z,6.40
2019-01-12T22:05:40.204Z,6.50
2019-01-12T22:08:11.946Z,6.50
2019-01-12T22:10:44.621Z,6.50
2019-01-12T22:13:16.499Z,6.50
2019-01-12T22:15:47.855Z,6.50
2019-01-12T22:18:19.803Z,6.50
2019-01-12T22:20:51.733Z,6.50
2019-01-12T22:23:23.522Z,6.50
2019-01-12T22:25:55.180Z,6.40
2019-01-12T22:28:26.922Z,6.50
2019-01-12T22:30:58.286Z,6.50
2019-01-12T22:33:30.391Z,6.50
2019-01-12T22:36:01.982Z,6.50
2019-01-12T22:38:35.094Z,6.50
2019-01-12T22:41:06.850Z,6.40
2019-01-12T22:43:38.467Z,6.30
2019-01-12T22:46:10.241Z,6.30
2019-01-12T22:48:41.595Z,6.20
2019-01-12T22:51:13.145Z,6.20
2019-01-12T22:53:44.515Z,6.20
2019-01-12T22:56:15.856Z,6.20
2019-01-12T22:58:47.783Z,6.20
2019-01-12T23:01:46.658Z,6.20
2019-01-12T23:04:23.936Z,6.30
2019-01-12T23:06:55.516Z,6.30
2019-01-12T23:09:26.796Z,6.30
2019-01-12T23:11:58.598Z,6.30
2019-01-12T23:14:30.571Z,6.30
2019-01-12T23:17:01.586Z,6.40
2019-01-12T23:19:33.579Z,6.40
2019-01-12T23:22:05.198Z,6.40
2019-01-12T23:24:36.884Z,6.50
2019-01-12T23:27:08.588Z,6.50
2019-01-12T23:29:40.465Z,6.50
2019-01-12T23:32:11.755Z,6.50
2019-01-12T23:34:43.095Z,6.40
2019-01-12T23:37:14.401Z,6.40
2019-01-12T23:39:45.656Z,6.40
2019-01-12T23:42:17.180Z,6.30
2019-01-12T23:44:48.804Z,6.40
2019-01-12T23:47:20.361Z,6.40
2019-01-12T23:49:52.000Z,6.40
2019-01-12T23:52:24.079Z,6.30
2019-01-12T23:54:55.725Z,6.30
2019-01-12T23:57:27.018Z,6.40
2019-01-12T23:59:58.617Z,6.40
